createdAt,value
2019-04-23T00:00:47.270Z,30.11
2019-04-23T00:01:49.811Z,30.07
2019-04-23T00:02:51.804Z,30.09
2019-04-23T00:03:54.261Z,30.03
2019-04-23T00:04:56.332Z,30.11
2019-04-23T00:05:58.596Z,30.11
2019-04-23T00:07:04.207Z,29.99
2019-04-23T00:08:03.287Z,30.07
2019-04-23T00:09:05.594Z,30.13
2019-04-23T00:10:07.881Z,29.99
2019-04-23T00:11:10.165Z,30.17
2019-04-23T00:12:12.569Z,30.05
2019-04-23T00:13:14.923Z,30.07
2019-04-23T00:14:17.095Z,30.12
2019-04-23T00:15:19.392Z,30.07
2019-04-23T00:16:21.749Z,30.05
2019-04-23T00:17:24.090Z,30.05
2019-04-23T00:18:26.201Z,30.01
2019-04-23T00:19:28.471Z,29.99
2019-04-23T00:20:30.761Z,30.12
2019-04-23T00:21:33.044Z,30.18
2019-04-23T00:22:35.339Z,29.97
2019-04-23T00:23:37.550Z,30.01
2019-04-23T00:24:39.851Z,30.14
2019-04-23T00:25:42.114Z,30.18
2019-04-23T00:26:44.417Z,30.12
2019-04-23T00:27:46.674Z,30.07
2019-04-23T00:28:48.975Z,30.12
2019-04-23T00:29:51.193Z,30.14
2019-04-23T00:30:53.517Z,30.07
2019-04-23T00:31:55.778Z,30.18
2019-04-23T00:32:58.109Z,30.1
2019-04-23T00:34:00.272Z,30.12
2019-04-23T00:35:02.546Z,30.1
2019-04-23T00:36:04.870Z,30.07
2019-04-23T00:37:07.110Z,30.14
2019-04-23T00:38:09.505Z,30.09
2019-04-23T00:39:11.649Z,30.12
2019-04-23T00:40:13.912Z,30.14
2019-04-23T00:41:16.183Z,30.16
2019-04-23T00:42:18.450Z,30.12
2019-04-23T00:43:20.732Z,30.18
2019-04-23T00:44:23.033Z,30.2
2019-04-23T00:45:25.278Z,30.16
2019-04-23T00:46:28.009Z,30.16
2019-04-23T00:47:29.848Z,30.14
2019-04-23T00:48:32.338Z,30.24
2019-04-23T00:49:34.400Z,30.37
2019-04-23T00:50:36.637Z,30.25
2019-04-23T00:51:38.911Z,30.22
2019-04-23T00:52:41.244Z,30.22
2019-04-23T00:53:43.467Z,30.24
2019-04-23T00:54:45.768Z,30.25
2019-04-23T00:55:47.989Z,30.16
2019-04-23T00:56:50.408Z,30.24
2019-04-23T00:57:52.536Z,30.26
2019-04-23T00:58:54.823Z,30.24
2019-04-23T00:59:57.091Z,30.2
2019-04-23T01:00:59.354Z,30.25
2019-04-23T01:02:01.645Z,30.35
2019-04-23T01:03:03.912Z,30.33
2019-04-23T01:04:06.176Z,30.27
2019-04-23T01:05:08.500Z,30.33
2019-04-23T01:06:12.376Z,30.22
2019-04-23T01:07:13.011Z,30.33
2019-04-23T01:08:15.371Z,30.33
2019-04-23T01:09:17.615Z,30.35
2019-04-23T01:10:19.815Z,30.29
2019-04-23T01:11:22.096Z,30.25
2019-04-23T01:12:24.382Z,30.37
2019-04-23T01:13:26.655Z,30.37
2019-04-23T01:14:28.946Z,30.31
2019-04-23T01:15:31.386Z,30.23
2019-04-23T01:16:33.579Z,30.31
2019-04-23T01:17:35.827Z,30.33
2019-04-23T01:18:38.104Z,30.25
2019-04-23T01:19:40.464Z,30.35
2019-04-23T01:20:42.765Z,30.35
2019-04-23T01:21:44.937Z,30.33
2019-04-23T01:22:47.215Z,30.39
2019-04-23T01:23:49.453Z,30.44
2019-04-23T01:24:51.861Z,30.33
2019-04-23T01:25:55.932Z,30.47
2019-04-23T01:26:56.274Z,30.47
2019-04-23T01:27:58.544Z,30.39
2019-04-23T01:29:00.812Z,30.37
2019-04-23T01:30:03.081Z,30.35
2019-04-23T01:31:05.417Z,30.39
2019-04-23T01:32:07.627Z,30.35
2019-04-23T01:33:09.948Z,30.27
2019-04-23T01:34:12.188Z,30.33
2019-04-23T01:35:14.456Z,30.35
2019-04-23T01:36:16.757Z,30.41
2019-04-23T01:37:18.993Z,30.41
2019-04-23T01:38:21.308Z,30.37
2019-04-23T01:39:23.603Z,30.41
2019-04-23T01:40:25.844Z,30.35
2019-04-23T01:41:28.470Z,30.39
2019-04-23T01:42:30.363Z,30.4
2019-04-23T01:43:32.951Z,30.41
2019-04-23T01:44:34.903Z,30.52
2019-04-23T01:45:37.326Z,30.57
2019-04-23T01:46:39.595Z,30.46
2019-04-23T01:47:41.718Z,30.41
2019-04-23T01:48:43.988Z,30.48
2019-04-23T01:49:46.297Z,30.42
2019-04-23T01:50:48.540Z,30.46
2019-04-23T01:51:50.908Z,30.42
2019-04-23T01:52:53.235Z,30.4
2019-04-23T01:53:55.354Z,30.44
2019-04-23T01:54:57.659Z,30.4
2019-04-23T01:55:59.992Z,30.5
2019-04-23T01:57:02.210Z,30.44
2019-04-23T01:58:04.414Z,30.56
2019-04-23T01:59:06.719Z,30.5
2019-04-23T02:00:09.009Z,30.54
2019-04-23T02:01:11.248Z,30.61
2019-04-23T02:02:13.538Z,30.63
2019-04-23T02:03:15.894Z,30.59
2019-04-23T02:04:18.066Z,30.64
2019-04-23T02:05:20.433Z,30.6
2019-04-23T02:06:22.653Z,30.48
2019-04-23T02:07:24.995Z,30.56
2019-04-23T02:08:27.232Z,30.5
2019-04-23T02:09:29.566Z,30.52
2019-04-23T02:10:31.874Z,30.52
2019-04-23T02:11:34.072Z,30.59
2019-04-23T02:12:36.802Z,30.5
2019-04-23T02:13:38.715Z,30.48
2019-04-23T02:14:40.941Z,30.6
2019-04-23T02:15:43.174Z,30.63
2019-04-23T02:16:45.494Z,30.56
2019-04-23T02:17:47.812Z,30.54
2019-04-23T02:18:49.997Z,30.54
2019-04-23T02:19:52.261Z,30.52
2019-04-23T02:20:54.623Z,30.46
2019-04-23T02:21:56.788Z,30.56
2019-04-23T02:22:59.131Z,30.52
2019-04-23T02:24:01.371Z,30.58
2019-04-23T02:25:03.678Z,30.52
2019-04-23T02:26:05.899Z,30.56
2019-04-23T02:27:08.161Z,30.54
2019-04-23T02:28:11.965Z,30.58
2019-04-23T02:29:12.697Z,30.57
2019-04-23T02:30:14.989Z,30.67
2019-04-23T02:31:17.251Z,30.54
2019-04-23T02:32:19.544Z,30.59
2019-04-23T02:33:21.910Z,30.55
2019-04-23T02:34:24.070Z,30.55
2019-04-23T02:35:26.483Z,30.61
2019-04-23T02:36:28.606Z,30.59
2019-04-23T02:37:30.895Z,30.61
2019-04-23T02:38:33.152Z,30.63
2019-04-23T02:39:35.640Z,30.62
2019-04-23T02:40:37.810Z,30.59
2019-04-23T02:41:40.063Z,30.67
2019-04-23T02:42:42.348Z,30.59
2019-04-23T02:43:44.606Z,30.52
2019-04-23T02:44:46.798Z,30.62
2019-04-23T02:45:49.088Z,30.59
2019-04-23T02:46:51.384Z,30.63
2019-04-23T02:47:53.684Z,30.55
2019-04-23T02:48:55.902Z,30.61
2019-04-23T02:49:58.144Z,30.61
2019-04-23T02:51:00.436Z,30.57
2019-04-23T02:52:02.701Z,30.61
2019-04-23T02:53:05.018Z,30.59
2019-04-23T02:54:07.247Z,30.61
2019-04-23T02:55:09.809Z,30.67
2019-04-23T02:56:11.812Z,30.67
2019-04-23T02:57:14.074Z,30.67
2019-04-23T02:58:16.327Z,30.67
2019-04-23T02:59:18.595Z,30.67
2019-04-23T03:00:20.911Z,30.65
2019-04-23T03:01:23.157Z,30.61
2019-04-23T03:02:25.410Z,30.73
2019-04-23T03:03:27.772Z,30.69
2019-04-23T03:04:30.006Z,30.69
2019-04-23T03:05:32.259Z,30.67
2019-04-23T03:06:34.711Z,30.69
2019-04-23T03:07:37.137Z,30.71
2019-04-23T03:08:39.157Z,30.61
2019-04-23T03:09:41.771Z,30.57
2019-04-23T03:10:43.839Z,30.57
2019-04-23T03:11:46.033Z,30.55
2019-04-23T03:12:48.254Z,30.59
2019-04-23T03:13:50.526Z,30.59
2019-04-23T03:14:52.760Z,30.65
2019-04-23T03:15:55.048Z,30.63
2019-04-23T03:16:57.324Z,30.59
2019-04-23T03:17:59.607Z,30.63
2019-04-23T03:19:01.878Z,30.57
2019-04-23T03:20:04.176Z,30.63
2019-04-23T03:21:06.457Z,30.59
2019-04-23T03:22:08.706Z,30.67
2019-04-23T03:23:11.075Z,30.57
2019-04-23T03:24:13.413Z,30.61
2019-04-23T03:25:15.520Z,30.59
2019-04-23T03:26:17.788Z,30.57
2019-04-23T03:27:20.100Z,30.52
2019-04-23T03:28:22.340Z,30.68
2019-04-23T03:29:24.600Z,30.63
2019-04-23T03:30:26.866Z,30.53
2019-04-23T03:31:29.253Z,30.59
2019-04-23T03:32:31.430Z,30.59
2019-04-23T03:33:33.681Z,30.55
2019-04-23T03:34:36.077Z,30.57
2019-04-23T03:35:38.249Z,30.57
2019-04-23T03:36:40.551Z,30.57
2019-04-23T03:37:42.788Z,30.67
2019-04-23T03:38:45.044Z,30.65
2019-04-23T03:39:47.347Z,30.63
2019-04-23T03:40:49.587Z,30.55
2019-04-23T03:41:52.066Z,30.55
2019-04-23T03:42:54.158Z,30.53
2019-04-23T03:43:56.475Z,30.61
2019-04-23T03:44:58.680Z,30.51
2019-04-23T03:46:00.989Z,30.51
2019-04-23T03:47:03.293Z,30.55
2019-04-23T03:48:05.516Z,30.61
2019-04-23T03:49:07.914Z,30.42
2019-04-23T03:50:15.043Z,30.5
2019-04-23T03:51:12.329Z,30.46
2019-04-23T03:52:14.712Z,30.55
2019-04-23T03:53:16.869Z,30.51
2019-04-23T03:54:19.416Z,30.51
2019-04-23T03:55:21.530Z,30.49
2019-04-23T03:56:23.749Z,30.47
2019-04-23T03:57:25.961Z,30.46
2019-04-23T03:58:28.235Z,30.44
2019-04-23T03:59:30.514Z,30.46
2019-04-23T04:00:32.804Z,30.48
2019-04-23T04:01:35.052Z,30.38
2019-04-23T04:02:37.335Z,30.49
2019-04-23T04:03:39.692Z,30.51
2019-04-23T04:04:41.886Z,30.39
2019-04-23T04:05:44.179Z,30.39
2019-04-23T04:06:46.472Z,30.34
2019-04-23T04:07:48.676Z,30.41
2019-04-23T04:08:51.059Z,30.46
2019-04-23T04:09:53.335Z,30.38
2019-04-23T04:10:55.659Z,30.34
2019-04-23T04:11:57.916Z,30.34
2019-04-23T04:13:00.240Z,30.3
2019-04-23T04:14:02.401Z,30.22
2019-04-23T04:15:04.690Z,30.24
2019-04-23T04:16:06.962Z,30.26
2019-04-23T04:17:09.364Z,30.3
2019-04-23T04:18:11.503Z,30.3
2019-04-23T04:19:13.764Z,30.24
2019-04-23T04:20:16.045Z,30.26
2019-04-23T04:21:18.412Z,30.28
2019-04-23T04:22:20.698Z,30.24
2019-04-23T04:23:22.866Z,30.3
2019-04-23T04:24:25.129Z,30.3
2019-04-23T04:25:27.437Z,30.28
2019-04-23T04:26:29.720Z,30.26
2019-04-23T04:27:31.970Z,30.22
2019-04-23T04:28:34.461Z,30.3
2019-04-23T04:29:36.542Z,30.39
2019-04-23T04:30:38.765Z,30.26
2019-04-23T04:31:41.071Z,30.34
2019-04-23T04:32:43.318Z,30.38
2019-04-23T04:33:45.601Z,30.24
2019-04-23T04:34:47.972Z,30.24
2019-04-23T04:35:50.184Z,30.24
2019-04-23T04:36:52.576Z,30.22
2019-04-23T04:37:54.683Z,30.28
2019-04-23T04:38:57.391Z,30.26
2019-04-23T04:39:59.259Z,30.22
2019-04-23T04:41:03.975Z,30.26
2019-04-23T04:42:03.865Z,30.24
2019-04-23T04:43:06.132Z,30.22
2019-04-23T04:44:08.315Z,30.3
2019-04-23T04:45:10.601Z,30.34
2019-04-23T04:46:12.914Z,30.3
2019-04-23T04:47:15.142Z,30.32
2019-04-23T04:48:17.544Z,30.28
2019-04-23T04:49:19.786Z,30.24
2019-04-23T04:50:21.958Z,30.22
2019-04-23T04:51:24.287Z,30.26
2019-04-23T04:52:26.694Z,30.28
2019-04-23T04:53:28.926Z,30.2
2019-04-23T04:54:31.081Z,30.22
2019-04-23T04:55:33.872Z,30.24
2019-04-23T04:56:35.830Z,30.24
2019-04-23T04:57:38.029Z,30.21
2019-04-23T04:58:40.266Z,30.26
2019-04-23T04:59:42.542Z,30.22
2019-04-23T05:00:44.842Z,30.24
2019-04-23T05:01:47.119Z,30.26
2019-04-23T05:02:49.355Z,30.18
2019-04-23T05:03:51.653Z,30.24
2019-04-23T05:04:53.947Z,30.3
2019-04-23T05:05:56.284Z,30.22
2019-04-23T05:06:58.519Z,30.24
2019-04-23T05:08:00.730Z,30.24
2019-04-23T05:09:02.997Z,30.26
2019-04-23T05:10:05.328Z,30.22
2019-04-23T05:11:07.590Z,30.3
2019-04-23T05:12:09.934Z,30.3
2019-04-23T05:13:12.119Z,30.26
2019-04-23T05:14:14.369Z,30.22
2019-04-23T05:15:16.733Z,30.32
2019-04-23T05:16:18.906Z,30.22
2019-04-23T05:17:21.180Z,30.26
2019-04-23T05:18:23.593Z,30.22
2019-04-23T05:19:25.723Z,30.26
2019-04-23T05:20:28.009Z,30.38
2019-04-23T05:21:30.261Z,30.36
2019-04-23T05:22:32.645Z,30.38
2019-04-23T05:23:34.969Z,30.36
2019-04-23T05:24:37.179Z,30.35
2019-04-23T05:25:39.924Z,30.34
2019-04-23T05:26:41.801Z,30.37
2019-04-23T05:27:44.047Z,30.24
2019-04-23T05:28:46.353Z,30.24
2019-04-23T05:29:48.563Z,30.28
2019-04-23T05:30:50.818Z,30.28
2019-04-23T05:31:53.229Z,30.37
2019-04-23T05:32:55.476Z,30.26
2019-04-23T05:33:57.644Z,30.28
2019-04-23T05:34:59.909Z,30.37
2019-04-23T05:36:02.284Z,30.28
2019-04-23T05:37:04.493Z,30.32
2019-04-23T05:38:06.775Z,30.28
2019-04-23T05:39:09.016Z,30.32
2019-04-23T05:40:11.294Z,30.41
2019-04-23T05:41:13.579Z,30.36
2019-04-23T05:42:15.862Z,30.32
2019-04-23T05:43:18.988Z,30.37
2019-04-23T05:44:20.387Z,30.37
2019-04-23T05:45:22.656Z,30.47
2019-04-23T05:46:24.933Z,30.39
2019-04-23T05:47:27.508Z,30.53
2019-04-23T05:48:29.483Z,30.51
2019-04-23T05:49:31.744Z,30.43
2019-04-23T05:50:34.006Z,30.47
2019-04-23T05:51:36.329Z,30.47
2019-04-23T05:52:38.556Z,30.55
2019-04-23T05:53:40.889Z,30.47
2019-04-23T05:54:43.117Z,30.47
2019-04-23T05:56:47.727Z,30.51
2019-04-23T05:57:54.760Z,30.51
2019-04-23T05:58:52.316Z,30.49
2019-04-23T05:59:54.836Z,30.6
2019-04-23T06:00:56.769Z,30.58
2019-04-23T06:01:59.041Z,30.61
2019-04-23T06:03:01.343Z,30.41
2019-04-23T06:04:03.632Z,30.5
2019-04-23T06:05:05.856Z,30.68
2019-04-23T06:06:08.113Z,30.58
2019-04-23T06:07:10.445Z,30.68
2019-04-23T06:08:12.677Z,30.58
2019-04-23T06:09:14.989Z,30.58
2019-04-23T06:10:17.254Z,30.58
2019-04-23T06:11:19.490Z,30.6
2019-04-23T06:12:21.842Z,30.64
2019-04-23T06:13:24.041Z,30.7
2019-04-23T06:14:26.337Z,30.58
2019-04-23T06:15:28.599Z,30.62
2019-04-23T06:16:30.904Z,30.77
2019-04-23T06:17:33.215Z,30.64
2019-04-23T06:18:35.568Z,30.68
2019-04-23T06:19:37.683Z,30.68
2019-04-23T06:20:40.700Z,33.32
2019-04-23T06:21:42.218Z,33.22
2019-04-23T06:22:44.505Z,33.16
2019-04-23T06:23:46.869Z,33.19
2019-04-23T06:24:49.124Z,33.08
2019-04-23T06:25:58.614Z,33.17
2019-04-23T06:26:53.621Z,33.26
2019-04-23T06:27:55.879Z,33.13
2019-04-23T06:28:58.149Z,33.2
2019-04-23T06:30:00.448Z,33.46
2019-04-23T06:31:04.431Z,33.39
2019-04-23T06:32:05.011Z,33.18
2019-04-23T06:33:07.280Z,32.86
2019-04-23T06:34:09.615Z,32.04
2019-04-23T06:35:11.811Z,31.66
2019-04-23T06:36:14.058Z,31.28
2019-04-23T06:37:16.361Z,31.15
2019-04-23T06:38:18.735Z,31.19
2019-04-23T06:39:20.903Z,31.13
2019-04-23T06:40:23.172Z,31.11
2019-04-23T06:41:25.457Z,31.06
2019-04-23T06:42:27.715Z,31.11
2019-04-23T06:43:29.979Z,31.1
2019-04-23T06:44:32.244Z,31.06
2019-04-23T06:45:34.628Z,31.09
2019-04-23T06:46:36.800Z,30.98
2019-04-23T06:47:39.078Z,31
2019-04-23T06:48:41.468Z,30.96
2019-04-23T06:49:43.848Z,31.13
2019-04-23T06:50:45.901Z,31.04
2019-04-23T06:51:48.232Z,31.08
2019-04-23T06:52:50.446Z,31.06
2019-04-23T06:53:52.749Z,31
2019-04-23T06:54:54.989Z,31.02
2019-04-23T06:55:57.352Z,30.98
2019-04-23T06:56:59.540Z,31.08
2019-04-23T06:58:01.919Z,30.96
2019-04-23T06:59:04.383Z,31.02
2019-04-23T07:00:06.459Z,30.96
2019-04-23T07:01:08.701Z,30.98
2019-04-23T07:02:10.900Z,31.02
2019-04-23T07:03:16.321Z,30.96
2019-04-23T07:04:15.476Z,30.98
2019-04-23T07:05:17.736Z,31
2019-04-23T07:06:20.013Z,30.96
2019-04-23T07:07:22.380Z,31.08
2019-04-23T07:08:24.931Z,30.87
2019-04-23T07:09:26.852Z,30.96
2019-04-23T07:10:29.174Z,30.98
2019-04-23T07:11:31.538Z,30.91
2019-04-23T07:12:33.661Z,31
2019-04-23T07:13:35.920Z,30.93
2019-04-23T07:14:38.223Z,30.93
2019-04-23T07:15:40.509Z,30.98
2019-04-23T07:16:42.753Z,30.95
2019-04-23T07:17:45.039Z,30.91
2019-04-23T07:18:47.281Z,30.89
2019-04-23T07:19:49.562Z,30.97
2019-04-23T07:20:51.886Z,30.85
2019-04-23T07:21:54.208Z,30.83
2019-04-23T07:22:56.456Z,30.8
2019-04-23T07:23:58.643Z,30.82
2019-04-23T07:25:01.094Z,30.82
2019-04-23T07:26:03.201Z,30.91
2019-04-23T07:27:05.541Z,30.82
2019-04-23T07:28:07.797Z,30.82
2019-04-23T07:29:10.035Z,30.85
2019-04-23T07:30:12.354Z,30.95
2019-04-23T07:31:14.601Z,30.91
2019-04-23T07:32:16.945Z,30.82
2019-04-23T07:33:19.124Z,30.8
2019-04-23T07:34:21.580Z,30.82
2019-04-23T07:35:23.828Z,30.82
2019-04-23T07:36:25.995Z,30.84
2019-04-23T07:37:28.238Z,30.87
2019-04-23T07:38:30.728Z,30.85
2019-04-23T07:39:32.836Z,30.82
2019-04-23T07:40:35.128Z,30.85
2019-04-23T07:41:37.386Z,30.78
2019-04-23T07:42:39.764Z,30.8
2019-04-23T07:43:41.852Z,30.85
2019-04-23T07:44:44.148Z,30.85
2019-04-23T07:45:46.416Z,30.93
2019-04-23T07:46:48.708Z,30.95
2019-04-23T07:47:51.098Z,30.89
2019-04-23T07:48:53.231Z,30.95
2019-04-23T07:49:55.604Z,30.89
2019-04-23T07:50:57.773Z,30.95
2019-04-23T07:52:00.095Z,30.97
2019-04-23T07:53:02.317Z,30.87
2019-04-23T07:54:04.769Z,30.95
2019-04-23T07:55:06.925Z,30.92
2019-04-23T07:56:09.233Z,30.95
2019-04-23T07:57:11.506Z,31.03
2019-04-23T07:58:13.706Z,30.99
2019-04-23T07:59:18.392Z,30.89
2019-04-23T08:00:18.522Z,30.89
2019-04-23T08:01:20.551Z,30.93
2019-04-23T08:02:22.772Z,30.86
2019-04-23T08:03:25.065Z,30.89
2019-04-23T08:04:27.349Z,30.93
2019-04-23T08:05:29.588Z,30.96
2019-04-23T08:06:31.903Z,30.88
2019-04-23T08:07:35.742Z,30.8
2019-04-23T08:08:36.784Z,30.76
2019-04-23T08:09:38.767Z,30.8
2019-04-23T08:10:40.991Z,30.8
2019-04-23T08:11:43.262Z,30.9
2019-04-23T08:12:50.319Z,30.86
2019-04-23T08:13:47.813Z,30.8
2019-04-23T08:14:50.075Z,30.89
2019-04-23T08:15:52.447Z,30.84
2019-04-23T08:16:54.685Z,30.86
2019-04-23T08:17:57.059Z,30.88
2019-04-23T08:18:59.299Z,30.84
2019-04-23T08:20:06.591Z,30.86
2019-04-23T08:21:03.735Z,30.86
2019-04-23T08:22:06.064Z,30.88
2019-04-23T08:23:08.267Z,30.84
2019-04-23T08:24:10.538Z,30.84
2019-04-23T08:25:12.800Z,30.86
2019-04-23T08:26:21.303Z,30.84
2019-04-23T08:27:17.376Z,30.9
2019-04-23T08:28:19.659Z,30.9
2019-04-23T08:29:21.923Z,30.88
2019-04-23T08:30:24.429Z,30.92
2019-04-23T08:31:26.561Z,30.88
2019-04-23T08:32:28.806Z,30.96
2019-04-23T08:33:31.092Z,30.88
2019-04-23T08:34:33.370Z,31
2019-04-23T08:35:35.635Z,30.94
2019-04-23T08:36:38.007Z,30.94
2019-04-23T08:37:40.180Z,31
2019-04-23T08:38:42.505Z,30.98
2019-04-23T08:39:44.815Z,31.03
2019-04-23T08:40:47.059Z,31.01
2019-04-23T08:41:49.344Z,30.96
2019-04-23T08:42:51.764Z,30.96
2019-04-23T08:43:53.816Z,31.01
2019-04-23T08:44:56.088Z,31.05
2019-04-23T08:45:58.561Z,31.02
2019-04-23T08:47:00.710Z,30.96
2019-04-23T08:48:02.933Z,30.98
2019-04-23T08:49:05.239Z,30.94
2019-04-23T08:50:07.520Z,31.02
2019-04-23T08:51:09.724Z,31.05
2019-04-23T08:52:12.012Z,31.08
2019-04-23T08:53:14.287Z,30.94
2019-04-23T08:54:16.593Z,31.05
2019-04-23T08:55:18.993Z,31.05
2019-04-23T08:57:23.388Z,31.11
2019-04-23T08:58:25.673Z,31.13
2019-04-23T08:59:27.960Z,31.27
2019-04-23T09:00:30.201Z,31.15
2019-04-23T09:01:32.508Z,31.17
2019-04-23T09:02:34.985Z,31.19
2019-04-23T09:03:37.211Z,31.21
2019-04-23T09:04:39.377Z,31.17
2019-04-23T09:05:41.704Z,31.27
2019-04-23T09:06:43.923Z,31.21
2019-04-23T09:07:46.163Z,31.19
2019-04-23T09:08:49.716Z,31.15
2019-04-23T09:09:50.938Z,31.08
2019-04-23T09:10:53.155Z,31.08
2019-04-23T09:11:55.283Z,31.11
2019-04-23T09:12:57.588Z,31.15
2019-04-23T09:13:59.874Z,31.1
2019-04-23T09:15:05.148Z,31.13
2019-04-23T09:16:04.421Z,31.15
2019-04-23T09:17:06.677Z,31.12
2019-04-23T09:18:08.982Z,31.08
2019-04-23T09:19:11.213Z,31.14
2019-04-23T09:20:13.625Z,31.12
2019-04-23T09:21:15.846Z,31.11
2019-04-23T09:22:18.096Z,31.11
2019-04-23T09:23:20.412Z,31.14
2019-04-23T09:24:22.632Z,31.1
2019-04-23T09:25:24.883Z,31.11
2019-04-23T09:26:27.571Z,31.15
2019-04-23T09:27:29.408Z,31.15
2019-04-23T09:28:31.766Z,31.04
2019-04-23T09:29:34.045Z,31.04
2019-04-23T09:30:36.226Z,31.04
2019-04-23T09:31:38.505Z,30.94
2019-04-23T09:32:40.796Z,31.02
2019-04-23T09:33:43.057Z,30.95
2019-04-23T09:34:45.367Z,31.02
2019-04-23T09:35:47.643Z,31.02
2019-04-23T09:36:49.856Z,31
2019-04-23T09:37:52.229Z,30.95
2019-04-23T09:38:54.496Z,30.93
2019-04-23T09:39:56.702Z,30.96
2019-04-23T09:40:58.978Z,30.95
2019-04-23T09:42:01.255Z,30.89
2019-04-23T09:43:03.718Z,30.81
2019-04-23T09:44:05.873Z,30.79
2019-04-23T09:45:08.075Z,30.83
2019-04-23T09:46:10.330Z,30.89
2019-04-23T09:47:12.631Z,30.83
2019-04-23T09:48:14.880Z,30.93
2019-04-23T09:49:17.588Z,30.95
2019-04-23T09:50:19.427Z,30.94
2019-04-23T09:51:21.716Z,30.95
2019-04-23T09:52:24.002Z,30.85
2019-04-23T09:53:26.237Z,30.83
2019-04-23T09:54:28.578Z,30.81
2019-04-23T09:56:33.104Z,30.68
2019-04-23T09:57:35.380Z,30.62
2019-04-23T09:58:37.634Z,30.51
2019-04-23T09:59:39.987Z,30.51
2019-04-23T10:00:42.248Z,30.47
2019-04-23T10:01:44.434Z,30.36
2019-04-23T10:02:46.720Z,30.36
2019-04-23T10:03:49.000Z,30.36
2019-04-23T10:04:51.344Z,30.38
2019-04-23T10:05:54.484Z,30.32
2019-04-23T10:06:55.837Z,30.36
2019-04-23T10:07:58.124Z,30.32
2019-04-23T10:09:00.432Z,30.3
2019-04-23T10:10:02.624Z,30.28
2019-04-23T10:11:04.910Z,30.32
2019-04-23T10:12:07.372Z,30.28
2019-04-23T10:13:09.538Z,30.23
2019-04-23T10:14:11.946Z,30.24
2019-04-23T10:15:14.091Z,30.23
2019-04-23T10:16:16.544Z,30.17
2019-04-23T10:17:18.656Z,30.28
2019-04-23T10:18:20.886Z,30.25
2019-04-23T10:19:23.167Z,30.23
2019-04-23T10:20:25.609Z,30.26
2019-04-23T10:21:27.977Z,30.19
2019-04-23T10:22:30.061Z,30.23
2019-04-23T10:23:32.268Z,30.25
2019-04-23T10:24:34.554Z,30.25
2019-04-23T10:25:37.070Z,30.25
2019-04-23T10:26:39.077Z,30.25
2019-04-23T10:27:41.421Z,30.3
2019-04-23T10:28:43.613Z,30.21
2019-04-23T10:29:46.234Z,30.19
2019-04-23T10:30:48.181Z,30.21
2019-04-23T10:31:50.558Z,30.25
2019-04-23T10:32:52.751Z,30.15
2019-04-23T10:33:55.063Z,30.23
2019-04-23T10:34:57.389Z,30.23
2019-04-23T10:35:59.559Z,30.25
2019-04-23T10:37:01.941Z,30.3
2019-04-23T10:38:04.136Z,30.29
2019-04-23T10:39:06.450Z,30.32
2019-04-23T10:40:10.831Z,30.3
2019-04-23T10:41:10.941Z,30.29
2019-04-23T10:42:13.190Z,30.27
2019-04-23T10:43:15.460Z,30.33
2019-04-23T10:44:18.195Z,30.3
2019-04-23T10:45:20.022Z,30.32
2019-04-23T10:46:22.509Z,30.26
2019-04-23T10:47:24.669Z,30.27
2019-04-23T10:48:26.862Z,30.28
2019-04-23T10:49:29.256Z,30.28
2019-04-23T10:50:31.397Z,30.3
2019-04-23T10:51:33.675Z,30.17
2019-04-23T10:52:35.959Z,30.18
2019-04-23T10:53:38.608Z,30.19
2019-04-23T10:54:40.486Z,30.23
2019-04-23T10:55:42.805Z,30.19
2019-04-23T10:56:45.005Z,30.21
2019-04-23T10:57:51.951Z,30.15
2019-04-23T10:58:49.564Z,30.23
2019-04-23T10:59:51.828Z,30.15
2019-04-23T11:00:54.314Z,30.15
2019-04-23T11:01:56.513Z,30.08
2019-04-23T11:02:58.652Z,30.18
2019-04-23T11:04:00.946Z,30.15
2019-04-23T11:05:03.216Z,30.21
2019-04-23T11:06:05.675Z,30.28
2019-04-23T11:07:07.775Z,30.19
2019-04-23T11:08:10.116Z,30.19
2019-04-23T11:09:12.307Z,30.21
2019-04-23T11:10:14.613Z,30.17
2019-04-23T11:11:16.872Z,30.19
2019-04-23T11:12:19.293Z,30.15
2019-04-23T11:13:21.626Z,30.19
2019-04-23T11:14:23.786Z,30.1
2019-04-23T11:15:26.027Z,30.13
2019-04-23T11:16:28.410Z,30.1
2019-04-23T11:17:30.587Z,30.15
2019-04-23T11:18:32.853Z,30.11
2019-04-23T11:19:35.205Z,30.1
2019-04-23T11:20:37.405Z,30.12
2019-04-23T11:21:39.736Z,29.98
2019-04-23T11:22:42.088Z,29.98
2019-04-23T11:23:44.237Z,30
2019-04-23T11:24:46.493Z,30.08
2019-04-23T11:26:51.102Z,29.96
2019-04-23T11:27:53.424Z,29.96
2019-04-23T11:28:55.776Z,29.94
2019-04-23T11:29:57.964Z,29.91
2019-04-23T11:31:00.162Z,29.91
2019-04-23T11:32:02.420Z,29.93
2019-04-23T11:33:04.745Z,29.89
2019-04-23T11:34:07.358Z,29.87
2019-04-23T11:35:09.254Z,29.89
2019-04-23T11:36:11.511Z,29.93
2019-04-23T11:37:13.810Z,29.87
2019-04-23T11:38:16.075Z,29.89
2019-04-23T11:39:18.398Z,29.89
2019-04-23T11:40:20.730Z,29.83
2019-04-23T11:41:22.929Z,29.81
2019-04-23T11:42:25.191Z,29.83
2019-04-23T11:43:27.671Z,29.85
2019-04-23T11:44:29.732Z,29.93
2019-04-23T11:45:32.112Z,30
2019-04-23T11:46:34.371Z,29.91
2019-04-23T11:47:36.761Z,29.84
2019-04-23T11:48:38.989Z,29.88
2019-04-23T11:49:41.130Z,29.82
2019-04-23T11:50:43.396Z,29.72
2019-04-23T11:51:45.645Z,29.78
2019-04-23T11:52:48.076Z,29.7
2019-04-23T11:53:50.342Z,29.65
2019-04-23T11:54:52.536Z,29.67
2019-04-23T11:55:54.956Z,29.74
2019-04-23T11:56:57.046Z,29.8
2019-04-23T11:57:59.274Z,29.76
2019-04-23T11:59:01.636Z,29.71
2019-04-23T12:00:03.859Z,29.73
2019-04-23T12:01:06.159Z,29.73
2019-04-23T12:02:08.363Z,29.67
2019-04-23T12:03:10.779Z,29.76
2019-04-23T12:04:12.944Z,29.75
2019-04-23T12:05:15.211Z,29.88
2019-04-23T12:06:17.486Z,29.82
2019-04-23T12:07:19.781Z,29.7
2019-04-23T12:08:22.030Z,29.71
2019-04-23T12:09:24.333Z,29.69
2019-04-23T12:10:26.737Z,29.88
2019-04-23T12:11:28.846Z,29.9
2019-04-23T12:12:31.145Z,29.75
2019-04-23T12:13:33.528Z,29.9
2019-04-23T12:14:35.756Z,29.67
2019-04-23T12:15:38.056Z,29.71
2019-04-23T12:16:40.309Z,29.75
2019-04-23T12:17:42.578Z,29.84
2019-04-23T12:18:44.842Z,29.94
2019-04-23T12:19:47.151Z,29.9
2019-04-23T12:20:49.422Z,30.09
2019-04-23T12:21:51.651Z,29.82
2019-04-23T12:22:53.951Z,29.81
2019-04-23T12:23:56.232Z,29.86
2019-04-23T12:24:58.484Z,29.9
2019-04-23T12:26:01.194Z,29.84
2019-04-23T12:27:03.060Z,29.85
2019-04-23T12:28:05.369Z,29.85
2019-04-23T12:29:07.601Z,29.83
2019-04-23T12:30:09.910Z,29.9
2019-04-23T12:31:12.319Z,30.02
2019-04-23T12:32:14.528Z,29.81
2019-04-23T12:33:16.706Z,29.83
2019-04-23T12:34:19.025Z,29.96
2019-04-23T12:35:21.333Z,29.87
2019-04-23T12:36:24.197Z,29.86
2019-04-23T12:37:25.772Z,29.94
2019-04-23T12:38:28.104Z,29.85
2019-04-23T12:39:30.459Z,29.84
2019-04-23T12:40:32.663Z,29.81
2019-04-23T12:41:34.879Z,29.77
2019-04-23T12:42:37.251Z,29.85
2019-04-23T12:43:39.481Z,29.89
2019-04-23T12:44:41.762Z,29.81
2019-04-23T12:45:44.055Z,29.68
2019-04-23T12:46:46.251Z,29.83
2019-04-23T12:47:48.628Z,29.81
2019-04-23T12:48:50.911Z,29.75
2019-04-23T12:49:53.074Z,29.9
2019-04-23T12:50:55.357Z,29.85
2019-04-23T12:51:57.623Z,29.79
2019-04-23T12:52:59.974Z,29.79
2019-04-23T12:54:02.234Z,29.62
2019-04-23T12:55:04.435Z,29.66
2019-04-23T12:56:07.028Z,29.74
2019-04-23T12:57:08.992Z,29.62
2019-04-23T12:58:11.260Z,29.54
2019-04-23T12:59:16.496Z,29.47
2019-04-23T13:00:15.885Z,29.51
2019-04-23T13:01:18.219Z,29.43
2019-04-23T13:02:20.490Z,29.43
2019-04-23T13:03:22.754Z,29.41
2019-04-23T13:04:25.118Z,29.41
2019-04-23T13:05:27.315Z,29.34
2019-04-23T13:06:29.753Z,29.47
2019-04-23T13:07:32.052Z,29.57
2019-04-23T13:08:34.259Z,29.59
2019-04-23T13:09:36.689Z,29.53
2019-04-23T13:10:39.402Z,29.23
2019-04-23T13:11:41.124Z,29.36
2019-04-23T13:12:43.488Z,29.36
2019-04-23T13:13:45.641Z,29.49
2019-04-23T13:14:47.912Z,29.27
2019-04-23T13:15:50.229Z,29.19
2019-04-23T13:16:52.451Z,29.15
2019-04-23T13:17:54.765Z,29.13
2019-04-23T13:18:57.258Z,29.33
2019-04-23T13:19:59.293Z,29.23
2019-04-23T13:21:05.733Z,29.12
2019-04-23T13:22:03.815Z,29.14
2019-04-23T13:23:06.137Z,28.93
2019-04-23T13:24:08.599Z,29.1
2019-04-23T13:25:10.676Z,29.77
2019-04-23T13:26:13.134Z,29.2
2019-04-23T13:27:15.193Z,29.1
2019-04-23T13:28:17.458Z,29.14
2019-04-23T13:29:19.772Z,28.99